Latest Conditions
At L.F.Wade Int. Airport
Recorded at 11:55 am
Few Clouds
Temp.: 
30°C/85°F
Humidity: 
63%
Wind: 
SSW 5KT
or 6mph
UV Index: 
N/A
Island Observations
Observations
Wednesday, August 31, 2016

Observations are in local time and taken at least once an hour, or upon the start and end of specified events such as showers and thunderstorms.

Time Sky / Weather Wind Speed/Gusts Temp. R.H. Pressure
     knots (mph)  °C (°F)  %  mb / "Hg
 11:55 Few Clouds  SSW 5/0 (6/0) 30(85) 63 1019 / 30.09
 10:55 Few Clouds  SSW 5/0 (6/0) 30(85) 62 1019 / 30.10
 09:55 Few Clouds  WSW 3/0 (3/0) 29(84) 67 1019 / 30.10
 08:55 Few Clouds  SW 3/0 (3/0) 28(83) 67 1019 / 30.09
 07:55 Few Clouds  SW 4/0 (5/0) 27(81) 76 1019 / 30.09
 06:55 Few Clouds  Calm 26(80) 77 1019 / 30.08
 05:55 Few Clouds  Calm 26(78) 82 1018 / 30.07
 04:55 Few Clouds  W 2/0 (2/0) 26(78) 83 1018 / 30.06
 03:55 Clear  NW 3/0 (3/0) 26(79) 81 1018 / 30.06
 02:55 Clear  W 3/0 (3/0) 26(78) 79 1018 / 30.07
 01:55 Clear  WSW 3/0 (3/0) 26(80) 75 1018 / 30.07
 00:55 Clear  SW 2/0 (2/0) 27(81) 70 1019 / 30.08
 23:55 Few Clouds  Calm 27(80) 77 1019 / 30.09
 22:55 Few Clouds  Calm 27(80) 72 1019 / 30.10
 21:55 Few Clouds  Calm 27(81) 72 1019 / 30.09
 20:55 Few Clouds  N 3/0 (3/0) 28(82) 70 1019 / 30.08
 19:55 Few Clouds  N 4/0 (5/0) 28(82) 67 1018 / 30.06
 18:55 Few Clouds  N 5/0 (6/0) 29(83) 66 1018 / 30.06
 17:55 Few Clouds  N 5/0 (6/0) 29(84) 67 1018 / 30.06
 16:55 Few Clouds  N 6/0 (7/0) 29(85) 67 1018 / 30.07
 15:55 Few Clouds  N 6/0 (7/0) 29(85) 65 1018 / 30.07
 14:55 Few Clouds  N 7/0 (8/0) 29(84) 67 1019 / 30.08
 13:55 Few Clouds  N 5/0 (6/0) 29(85) 66 1019 / 30.10
 12:55 Few Clouds  NNW 5/0 (6/0) 29(84) 66 1019 / 30.10
Observations from our AWOS sites are available here (password and username are both 'guest').